sensor_id;sensor_type;location;lat;lon;timestamp;pressure;altitude;pressure_sealevel;temperature;humidity
47706;BME280;33471;52.104;1.318;2022-09-27T00:00:59;99811.62;;;9.72;56.23
47706;BME280;33471;52.104;1.318;2022-09-27T00:03:28;99814.70;;;8.47;58.28
47706;BME280;33471;52.104;1.318;2022-09-27T00:06:05;99814.90;;;8.52;58.99
47706;BME280;33471;52.104;1.318;2022-09-27T00:08:33;99814.38;;;7.76;61.87
47706;BME280;33471;52.104;1.318;2022-09-27T00:11:02;99813.79;;;7.84;61.90
47706;BME280;33471;52.104;1.318;2022-09-27T00:13:29;99816.46;;;8.10;61.01
47706;BME280;33471;52.104;1.318;2022-09-27T00:15:58;99827.52;;;6.88;65.54
47706;BME280;33471;52.104;1.318;2022-09-27T00:18:26;99821.92;;;7.68;63.85
47706;BME280;33471;52.104;1.318;2022-09-27T00:20:53;99821.32;;;8.25;62.79
47706;BME280;33471;52.104;1.318;2022-09-27T00:23:20;99816.99;;;7.65;63.31
47706;BME280;33471;52.104;1.318;2022-09-27T00:25:55;99818.16;;;7.26;66.09
47706;BME280;33471;52.104;1.318;2022-09-27T00:28:23;99817.17;;;7.25;66.24
47706;BME280;33471;52.104;1.318;2022-09-27T00:30:51;99820.76;;;8.42;62.10
47706;BME280;33471;52.104;1.318;2022-09-27T00:33:19;99821.67;;;7.59;64.43
47706;BME280;33471;52.104;1.318;2022-09-27T00:35:46;99820.00;;;6.66;63.12
47706;BME280;33471;52.104;1.318;2022-09-27T00:38:14;99819.13;;;7.22;63.22
47706;BME280;33471;52.104;1.318;2022-09-27T00:40:41;99819.37;;;8.46;60.18
47706;BME280;33471;52.104;1.318;2022-09-27T00:43:16;99825.37;;;8.42;59.18
47706;BME280;33471;52.104;1.318;2022-09-27T00:45:48;99825.28;;;7.51;63.29
47706;BME280;33471;52.104;1.318;2022-09-27T00:48:20;99831.62;;;7.76;61.11
47706;BME280;33471;52.104;1.318;2022-09-27T00:50:50;99829.99;;;8.38;60.59
47706;BME280;33471;52.104;1.318;2022-09-27T00:53:23;99825.89;;;7.21;62.83
47706;BME280;33471;52.104;1.318;2022-09-27T00:55:53;99823.94;;;8.25;60.18
47706;BME280;33471;52.104;1.318;2022-09-27T00:58:27;99821.58;;;9.34;57.72
47706;BME280;33471;52.104;1.318;2022-09-27T01:01:00;99826.27;;;8.87;58.90
47706;BME280;33471;52.104;1.318;2022-09-27T01:03:35;99821.98;;;9.46;57.49
47706;BME280;33471;52.104;1.318;2022-09-27T01:06:04;99825.09;;;8.11;61.12
47706;BME280;33471;52.104;1.318;2022-09-27T01:08:33;99826.61;;;7.44;63.42
47706;BME280;33471;52.104;1.318;2022-09-27T01:11:11;99821.98;;;8.05;62.21
47706;BME280;33471;52.104;1.318;2022-09-27T01:13:46;99821.83;;;7.34;64.15
47706;BME280;33471;52.104;1.318;2022-09-27T01:16:22;99819.24;;;7.72;63.37
47706;BME280;33471;52.104;1.318;2022-09-27T01:19:03;99814.62;;;8.18;62.03
47706;BME280;33471;52.104;1.318;2022-09-27T01:21:42;99810.51;;;7.61;62.70
47706;BME280;33471;52.104;1.318;2022-09-27T01:24:23;99810.02;;;7.29;63.40
47706;BME280;33471;52.104;1.318;2022-09-27T01:27:41;99806.23;;;8.25;62.61
47706;BME280;33471;52.104;1.318;2022-09-27T01:30:19;99805.71;;;7.03;63.72
47706;BME280;33471;52.104;1.318;2022-09-27T01:32:53;99808.21;;;8.02;62.72
47706;BME280;33471;52.104;1.318;2022-09-27T01:35:31;99809.18;;;7.13;66.15
47706;BME280;33471;52.104;1.318;2022-09-27T01:38:12;99808.17;;;7.30;65.02
47706;BME280;33471;52.104;1.318;2022-09-27T01:40:48;99806.69;;;6.16;68.63
47706;BME280;33471;52.104;1.318;2022-09-27T01:43:23;99804.22;;;6.72;66.16
47706;BME280;33471;52.104;1.318;2022-09-27T01:45:56;99805.87;;;6.52;67.64
47706;BME280;33471;52.104;1.318;2022-09-27T01:48:31;99808.09;;;6.70;67.04
47706;BME280;33471;52.104;1.318;2022-09-27T01:51:06;99799.33;;;7.90;63.70
47706;BME280;33471;52.104;1.318;2022-09-27T01:53:38;99799.56;;;7.52;62.98
47706;BME280;33471;52.104;1.318;2022-09-27T01:56:13;99801.27;;;7.85;63.05
47706;BME280;33471;52.104;1.318;2022-09-27T01:58:48;99806.40;;;6.76;65.84
47706;BME280;33471;52.104;1.318;2022-09-27T02:01:20;99814.72;;;6.72;64.54
47706;BME280;33471;52.104;1.318;2022-09-27T02:03:50;99810.36;;;7.60;62.58
47706;BME280;33471;52.104;1.318;2022-09-27T02:06:22;99812.19;;;7.18;63.33
47706;BME280;33471;52.104;1.318;2022-09-27T02:08:54;99817.41;;;6.93;64.81
47706;BME280;33471;52.104;1.318;2022-09-27T02:11:22;99813.17;;;7.17;64.17
47706;BME280;33471;52.104;1.318;2022-09-27T02:13:53;99815.69;;;7.73;62.59
47706;BME280;33471;52.104;1.318;2022-09-27T02:16:28;99815.70;;;6.72;63.56
47706;BME280;33471;52.104;1.318;2022-09-27T02:19:05;99818.09;;;6.76;65.51
47706;BME280;33471;52.104;1.318;2022-09-27T02:21:41;99814.63;;;7.20;62.76
47706;BME280;33471;52.104;1.318;2022-09-27T02:24:14;99815.91;;;5.41;67.06
47706;BME280;33471;52.104;1.318;2022-09-27T02:26:49;99818.25;;;5.87;67.74
47706;BME280;33471;52.104;1.318;2022-09-27T02:29:22;99813.37;;;5.50;68.50
47706;BME280;33471;52.104;1.318;2022-09-27T02:31:51;99812.18;;;7.05;64.64
47706;BME280;33471;52.104;1.318;2022-09-27T02:34:20;99811.61;;;6.28;64.35
47706;BME280;33471;52.104;1.318;2022-09-27T02:36:49;99808.77;;;5.52;67.82
47706;BME280;33471;52.104;1.318;2022-09-27T02:39:18;99813.32;;;4.88;70.04
47706;BME280;33471;52.104;1.318;2022-09-27T02:41:45;99809.98;;;5.40;68.67
47706;BME280;33471;52.104;1.318;2022-09-27T02:44:14;99811.73;;;5.40;67.37
47706;BME280;33471;52.104;1.318;2022-09-27T02:47:03;99812.74;;;5.80;66.88
47706;BME280;33471;52.104;1.318;2022-09-27T02:49:46;99813.93;;;6.03;66.31
47706;BME280;33471;52.104;1.318;2022-09-27T02:52:25;99811.76;;;5.56;66.27
47706;BME280;33471;52.104;1.318;2022-09-27T02:55:02;99809.73;;;5.48;67.43
47706;BME280;33471;52.104;1.318;2022-09-27T02:57:44;99809.28;;;6.29;64.25
47706;BME280;33471;52.104;1.318;2022-09-27T03:00:17;99809.33;;;5.42;68.91
47706;BME280;33471;52.104;1.318;2022-09-27T03:02:52;99807.39;;;5.66;68.24
47706;BME280;33471;52.104;1.318;2022-09-27T03:05:27;99807.96;;;5.65;65.36
47706;BME280;33471;52.104;1.318;2022-09-27T03:07:55;99805.23;;;6.00;65.22
47706;BME280;33471;52.104;1.318;2022-09-27T03:10:25;99808.91;;;5.74;65.57
47706;BME280;33471;52.104;1.318;2022-09-27T03:12:52;99806.06;;;5.96;64.53
47706;BME280;33471;52.104;1.318;2022-09-27T03:15:20;99804.09;;;5.27;66.82
47706;BME280;33471;52.104;1.318;2022-09-27T03:17:47;99801.62;;;5.33;66.47
47706;BME280;33471;52.104;1.318;2022-09-27T03:20:14;99810.19;;;4.45;68.91
47706;BME280;33471;52.104;1.318;2022-09-27T03:22:42;99808.14;;;5.96;65.23
47706;BME280;33471;52.104;1.318;2022-09-27T03:25:10;99813.58;;;5.69;64.35
47706;BME280;33471;52.104;1.318;2022-09-27T03:27:38;99816.45;;;4.72;68.07
47706;BME280;33471;52.104;1.318;2022-09-27T03:30:07;99812.22;;;5.99;65.26
47706;BME280;33471;52.104;1.318;2022-09-27T03:32:34;99813.34;;;5.57;65.48
47706;BME280;33471;52.104;1.318;2022-09-27T03:35:02;99811.47;;;5.29;65.66
47706;BME280;33471;52.104;1.318;2022-09-27T03:37:29;99812.82;;;5.50;64.13
47706;BME280;33471;52.104;1.318;2022-09-27T03:39:56;99809.69;;;5.66;65.57
47706;BME280;33471;52.104;1.318;2022-09-27T03:42:24;99808.63;;;4.67;66.20
47706;BME280;33471;52.104;1.318;2022-09-27T03:44:51;99812.33;;;5.71;64.76
47706;BME280;33471;52.104;1.318;2022-09-27T03:47:18;99821.77;;;4.99;66.96
47706;BME280;33471;52.104;1.318;2022-09-27T03:49:45;99822.77;;;5.12;66.82
47706;BME280;33471;52.104;1.318;2022-09-27T03:52:13;99826.40;;;4.10;67.83
47706;BME280;33471;52.104;1.318;2022-09-27T03:54:40;99822.88;;;5.01;66.23
47706;BME280;33471;52.104;1.318;2022-09-27T03:57:08;99818.67;;;5.30;63.66
47706;BME280;33471;52.104;1.318;2022-09-27T03:59:36;99819.24;;;5.37;64.04
47706;BME280;33471;52.104;1.318;2022-09-27T04:02:03;99817.34;;;6.27;61.55
47706;BME280;33471;52.104;1.318;2022-09-27T04:04:30;99822.94;;;5.07;64.14
47706;BME280;33471;52.104;1.318;2022-09-27T04:06:57;99820.76;;;5.94;63.11
47706;BME280;33471;52.104;1.318;2022-09-27T04:09:24;99820.85;;;5.74;62.26
47706;BME280;33471;52.104;1.318;2022-09-27T04:11:51;99819.13;;;5.21;64.42
47706;BME280;33471;52.104;1.318;2022-09-27T04:14:18;99817.98;;;5.25;63.09
47706;BME280;33471;52.104;1.318;2022-09-27T04:16:46;99815.09;;;5.98;61.22
47706;BME280;33471;52.104;1.318;2022-09-27T04:19:13;99814.50;;;5.27;61.34
47706;BME280;33471;52.104;1.318;2022-09-27T04:21:40;99810.24;;;5.74;61.12
47706;BME280;33471;52.104;1.318;2022-09-27T04:24:08;99808.02;;;4.87;64.77
47706;BME280;33471;52.104;1.318;2022-09-27T04:26:35;99800.95;;;5.80;62.03
47706;BME280;33471;52.104;1.318;2022-09-27T04:29:03;99794.51;;;6.73;60.26
47706;BME280;33471;52.104;1.318;2022-09-27T04:31:32;99793.57;;;5.81;60.87
47706;BME280;33471;52.104;1.318;2022-09-27T04:33:58;99800.94;;;4.65;65.80
47706;BME280;33471;52.104;1.318;2022-09-27T04:36:26;99786.34;;;5.09;63.67
47706;BME280;33471;52.104;1.318;2022-09-27T04:38:56;99793.96;;;4.60;65.40
47706;BME280;33471;52.104;1.318;2022-09-27T04:41:25;99789.10;;;5.79;62.62
47706;BME280;33471;52.104;1.318;2022-09-27T04:43:53;99787.09;;;5.58;62.92
47706;BME280;33471;52.104;1.318;2022-09-27T04:46:20;99786.13;;;4.80;64.09
47706;BME280;33471;52.104;1.318;2022-09-27T04:48:48;99787.08;;;5.13;64.32
47706;BME280;33471;52.104;1.318;2022-09-27T04:51:16;99788.76;;;4.48;64.23
47706;BME280;33471;52.104;1.318;2022-09-27T04:53:44;99784.33;;;5.18;63.66
47706;BME280;33471;52.104;1.318;2022-09-27T04:56:12;99785.45;;;4.40;63.88
47706;BME280;33471;52.104;1.318;2022-09-27T04:58:39;99779.09;;;5.03;63.18
47706;BME280;33471;52.104;1.318;2022-09-27T05:01:07;99778.82;;;5.15;63.14
47706;BME280;33471;52.104;1.318;2022-09-27T05:03:35;99780.43;;;5.23;62.19
47706;BME280;33471;52.104;1.318;2022-09-27T05:06:02;99783.97;;;5.85;60.93
47706;BME280;33471;52.104;1.318;2022-09-27T05:08:30;99785.03;;;4.48;63.71
47706;BME280;33471;52.104;1.318;2022-09-27T05:10:57;99781.80;;;4.93;63.54
47706;BME280;33471;52.104;1.318;2022-09-27T05:13:24;99783.34;;;5.07;61.18
47706;BME280;33471;52.104;1.318;2022-09-27T05:16:00;99788.84;;;5.56;61.18
47706;BME280;33471;52.104;1.318;2022-09-27T05:18:28;99790.95;;;4.54;63.51
47706;BME280;33471;52.104;1.318;2022-09-27T05:20:55;99790.25;;;4.57;63.22
47706;BME280;33471;52.104;1.318;2022-09-27T05:23:27;99783.42;;;4.76;61.74
47706;BME280;33471;52.104;1.318;2022-09-27T05:25:54;99785.90;;;5.33;61.06
47706;BME280;33471;52.104;1.318;2022-09-27T05:28:22;99783.47;;;5.65;59.36
47706;BME280;33471;52.104;1.318;2022-09-27T05:30:49;99782.04;;;5.84;58.32
47706;BME280;33471;52.104;1.318;2022-09-27T05:33:17;99779.23;;;5.33;59.56
47706;BME280;33471;52.104;1.318;2022-09-27T05:35:50;99775.86;;;4.81;61.71
47706;BME280;33471;52.104;1.318;2022-09-27T05:38:18;99773.04;;;4.73;61.35
47706;BME280;33471;52.104;1.318;2022-09-27T05:40:45;99773.41;;;5.51;60.58
47706;BME280;33471;52.104;1.318;2022-09-27T05:43:12;99775.15;;;4.49;61.61
47706;BME280;33471;52.104;1.318;2022-09-27T05:45:39;99780.36;;;4.87;61.51
47706;BME280;33471;52.104;1.318;2022-09-27T05:48:07;99779.40;;;5.48;60.66
47706;BME280;33471;52.104;1.318;2022-09-27T05:50:35;99782.56;;;5.39;60.87
47706;BME280;33471;52.104;1.318;2022-09-27T05:53:02;99785.01;;;4.73;62.22
47706;BME280;33471;52.104;1.318;2022-09-27T05:55:29;99787.94;;;4.78;62.73
47706;BME280;33471;52.104;1.318;2022-09-27T05:57:58;99792.99;;;4.69;63.90
47706;BME280;33471;52.104;1.318;2022-09-27T06:00:26;99791.75;;;4.83;64.22
47706;BME280;33471;52.104;1.318;2022-09-27T06:02:55;99779.92;;;4.97;62.70
47706;BME280;33471;52.104;1.318;2022-09-27T06:05:24;99782.28;;;5.11;63.01
47706;BME280;33471;52.104;1.318;2022-09-27T06:07:56;99783.19;;;5.35;63.74
47706;BME280;33471;52.104;1.318;2022-09-27T06:10:24;99787.25;;;4.41;64.98
47706;BME280;33471;52.104;1.318;2022-09-27T06:12:52;99793.04;;;4.82;64.89
47706;BME280;33471;52.104;1.318;2022-09-27T06:15:19;99786.93;;;5.37;63.46
47706;BME280;33471;52.104;1.318;2022-09-27T06:17:46;99796.16;;;4.84;65.58
47706;BME280;33471;52.104;1.318;2022-09-27T06:20:13;99799.32;;;4.28;66.02
47706;BME280;33471;52.104;1.318;2022-09-27T06:22:40;99792.41;;;5.27;64.43
47706;BME280;33471;52.104;1.318;2022-09-27T06:25:09;99789.60;;;4.66;65.49
47706;BME280;33471;52.104;1.318;2022-09-27T06:27:36;99784.22;;;4.60;66.03
47706;BME280;33471;52.104;1.318;2022-09-27T06:30:04;99780.10;;;4.84;66.63
47706;BME280;33471;52.104;1.318;2022-09-27T06:32:32;99776.31;;;5.67;63.30
47706;BME280;33471;52.104;1.318;2022-09-27T06:34:59;99778.62;;;5.93;63.06
47706;BME280;33471;52.104;1.318;2022-09-27T06:37:27;99779.08;;;4.59;66.17
47706;BME280;33471;52.104;1.318;2022-09-27T06:39:54;99774.47;;;5.54;65.70
47706;BME280;33471;52.104;1.318;2022-09-27T06:42:21;99781.65;;;4.44;67.88
47706;BME280;33471;52.104;1.318;2022-09-27T06:44:48;99778.23;;;4.78;67.43
47706;BME280;33471;52.104;1.318;2022-09-27T06:47:15;99766.02;;;4.65;65.87
47706;BME280;33471;52.104;1.318;2022-09-27T06:49:42;99765.83;;;5.53;64.45
47706;BME280;33471;52.104;1.318;2022-09-27T06:52:10;99767.49;;;6.43;61.91
47706;BME280;33471;52.104;1.318;2022-09-27T06:54:37;99772.00;;;5.57;63.66
47706;BME280;33471;52.104;1.318;2022-09-27T06:57:05;99765.59;;;6.45;61.03
47706;BME280;33471;52.104;1.318;2022-09-27T06:59:31;99769.36;;;6.19;63.00
47706;BME280;33471;52.104;1.318;2022-09-27T07:01:59;99764.45;;;6.26;63.61
47706;BME280;33471;52.104;1.318;2022-09-27T07:04:26;99770.38;;;5.88;64.24
47706;BME280;33471;52.104;1.318;2022-09-27T07:06:53;99762.58;;;5.75;64.70
47706;BME280;33471;52.104;1.318;2022-09-27T07:09:21;99768.93;;;5.48;65.34
47706;BME280;33471;52.104;1.318;2022-09-27T07:11:48;99777.85;;;5.79;65.13
47706;BME280;33471;52.104;1.318;2022-09-27T07:14:15;99772.40;;;6.31;62.35
47706;BME280;33471;52.104;1.318;2022-09-27T07:16:42;99768.45;;;6.07;63.89
47706;BME280;33471;52.104;1.318;2022-09-27T07:19:11;99767.02;;;5.70;64.29
47706;BME280;33471;52.104;1.318;2022-09-27T07:21:38;99767.92;;;6.66;62.64
47706;BME280;33471;52.104;1.318;2022-09-27T07:24:05;99760.32;;;6.60;62.59
47706;BME280;33471;52.104;1.318;2022-09-27T07:26:33;99763.50;;;6.45;62.17
47706;BME280;33471;52.104;1.318;2022-09-27T07:29:00;99756.45;;;6.76;62.19
47706;BME280;33471;52.104;1.318;2022-09-27T07:31:27;99750.74;;;5.97;64.20
47706;BME280;33471;52.104;1.318;2022-09-27T07:33:54;99742.58;;;6.80;61.49
47706;BME280;33471;52.104;1.318;2022-09-27T07:36:21;99739.76;;;7.02;61.02
47706;BME280;33471;52.104;1.318;2022-09-27T07:38:49;99740.81;;;6.97;61.37
47706;BME280;33471;52.104;1.318;2022-09-27T07:41:16;99740.82;;;5.69;63.52
47706;BME280;33471;52.104;1.318;2022-09-27T07:43:43;99746.64;;;6.98;61.32
47706;BME280;33471;52.104;1.318;2022-09-27T07:46:11;99740.09;;;7.18;60.49
47706;BME280;33471;52.104;1.318;2022-09-27T07:48:38;99740.62;;;7.56;60.18
47706;BME280;33471;52.104;1.318;2022-09-27T07:51:06;99735.97;;;7.88;59.57
47706;BME280;33471;52.104;1.318;2022-09-27T07:53:34;99740.20;;;8.26;58.30
47706;BME280;33471;52.104;1.318;2022-09-27T07:56:01;99738.60;;;8.54;57.97
47706;BME280;33471;52.104;1.318;2022-09-27T07:58:28;99740.24;;;8.49;57.80
47706;BME280;33471;52.104;1.318;2022-09-27T08:00:58;99740.70;;;9.03;56.84
47706;BME280;33471;52.104;1.318;2022-09-27T08:03:26;99741.12;;;8.10;58.44
47706;BME280;33471;52.104;1.318;2022-09-27T08:05:53;99738.90;;;7.96;59.60
47706;BME280;33471;52.104;1.318;2022-09-27T08:08:20;99749.35;;;7.38;60.41
47706;BME280;33471;52.104;1.318;2022-09-27T08:10:47;99748.64;;;8.41;58.71
47706;BME280;33471;52.104;1.318;2022-09-27T08:13:15;99747.11;;;7.44;60.70
47706;BME280;33471;52.104;1.318;2022-09-27T08:15:42;99751.94;;;8.16;59.39
47706;BME280;33471;52.104;1.318;2022-09-27T08:18:10;99752.94;;;7.86;59.60
47706;BME280;33471;52.104;1.318;2022-09-27T08:20:38;99748.18;;;7.60;60.82
47706;BME280;33471;52.104;1.318;2022-09-27T08:23:05;99751.24;;;8.49;59.21
47706;BME280;33471;52.104;1.318;2022-09-27T08:25:33;99746.62;;;7.58;60.96
47706;BME280;33471;52.104;1.318;2022-09-27T08:28:01;99745.93;;;8.34;59.39
47706;BME280;33471;52.104;1.318;2022-09-27T08:30:30;99746.48;;;7.88;60.07
47706;BME280;33471;52.104;1.318;2022-09-27T08:33:00;99749.22;;;8.34;59.72
47706;BME280;33471;52.104;1.318;2022-09-27T08:35:28;99746.61;;;9.08;57.93
47706;BME280;33471;52.104;1.318;2022-09-27T08:37:56;99747.67;;;9.03;57.89
47706;BME280;33471;52.104;1.318;2022-09-27T08:40:30;99746.11;;;8.91;56.81
47706;BME280;33471;52.104;1.318;2022-09-27T08:43:08;99742.40;;;9.22;57.75
47706;BME280;33471;52.104;1.318;2022-09-27T08:45:43;99746.82;;;8.46;58.43
47706;BME280;33471;52.104;1.318;2022-09-27T08:48:15;99743.27;;;7.77;60.93
47706;BME280;33471;52.104;1.318;2022-09-27T08:50:46;99744.99;;;8.33;60.11
47706;BME280;33471;52.104;1.318;2022-09-27T08:53:20;99744.38;;;8.08;58.51
47706;BME280;33471;52.104;1.318;2022-09-27T08:55:49;99743.01;;;9.13;57.74
47706;BME280;33471;52.104;1.318;2022-09-27T08:58:23;99748.49;;;8.19;59.71
47706;BME280;33471;52.104;1.318;2022-09-27T09:00:52;99741.26;;;8.96;57.91
47706;BME280;33471;52.104;1.318;2022-09-27T09:03:23;99737.02;;;8.70;57.52
47706;BME280;33471;52.104;1.318;2022-09-27T09:06:05;99730.95;;;10.00;55.65
47706;BME280;33471;52.104;1.318;2022-09-27T09:08:43;99734.47;;;8.59;57.57
47706;BME280;33471;52.104;1.318;2022-09-27T09:11:23;99738.60;;;8.05;59.24
47706;BME280;33471;52.104;1.318;2022-09-27T09:14:16;99731.14;;;9.36;56.41
47706;BME280;33471;52.104;1.318;2022-09-27T09:16:55;99725.22;;;9.55;56.70
47706;BME280;33471;52.104;1.318;2022-09-27T09:19:37;99721.12;;;9.27;56.13
47706;BME280;33471;52.104;1.318;2022-09-27T09:22:25;99711.03;;;9.66;55.88
47706;BME280;33471;52.104;1.318;2022-09-27T09:25:08;99711.92;;;9.50;55.95
47706;BME280;33471;52.104;1.318;2022-09-27T09:27:44;99709.82;;;10.58;53.32
47706;BME280;33471;52.104;1.318;2022-09-27T09:30:19;99705.16;;;9.76;53.75
47706;BME280;33471;52.104;1.318;2022-09-27T09:32:59;99705.98;;;9.66;54.43
47706;BME280;33471;52.104;1.318;2022-09-27T09:35:33;99708.10;;;9.37;55.68
47706;BME280;33471;52.104;1.318;2022-09-27T09:38:05;99713.83;;;9.47;56.58
47706;BME280;33471;52.104;1.318;2022-09-27T09:40:41;99707.23;;;9.86;54.44
47706;BME280;33471;52.104;1.318;2022-09-27T09:43:15;99696.60;;;9.82;54.34
47706;BME280;33471;52.104;1.318;2022-09-27T09:45:47;99701.95;;;10.50;53.94
47706;BME280;33471;52.104;1.318;2022-09-27T09:48:21;99697.92;;;10.00;52.66
47706;BME280;33471;52.104;1.318;2022-09-27T09:50:52;99703.90;;;9.81;55.13
47706;BME280;33471;52.104;1.318;2022-09-27T09:53:33;99697.86;;;9.89;53.33
47706;BME280;33471;52.104;1.318;2022-09-27T09:56:08;99700.22;;;9.46;54.01
47706;BME280;33471;52.104;1.318;2022-09-27T09:58:40;99695.72;;;9.47;54.13
47706;BME280;33471;52.104;1.318;2022-09-27T10:01:15;99689.66;;;9.52;52.78
47706;BME280;33471;52.104;1.318;2022-09-27T10:03:44;99684.38;;;9.49;54.26
47706;BME280;33471;52.104;1.318;2022-09-27T10:06:13;99683.28;;;9.67;53.65
47706;BME280;33471;52.104;1.318;2022-09-27T10:08:42;99678.58;;;10.06;52.72
47706;BME280;33471;52.104;1.318;2022-09-27T10:11:17;99672.28;;;9.16;53.03
47706;BME280;33471;52.104;1.318;2022-09-27T10:13:46;99669.08;;;10.25;52.04
47706;BME280;33471;52.104;1.318;2022-09-27T10:16:16;99667.17;;;9.70;51.62
47706;BME280;33471;52.104;1.318;2022-09-27T10:18:45;99664.42;;;10.44;50.06
47706;BME280;33471;52.104;1.318;2022-09-27T10:21:17;99661.25;;;9.51;50.75
47706;BME280;33471;52.104;1.318;2022-09-27T10:24:18;99654.38;;;12.03;47.76
47706;BME280;33471;52.104;1.318;2022-09-27T10:26:47;99649.29;;;10.69;48.78
47706;BME280;33471;52.104;1.318;2022-09-27T10:29:26;99646.59;;;9.96;49.70
47706;BME280;33471;52.104;1.318;2022-09-27T10:31:56;99650.69;;;10.08;52.09
47706;BME280;33471;52.104;1.318;2022-09-27T10:34:27;99645.63;;;10.06;49.67
47706;BME280;33471;52.104;1.318;2022-09-27T10:37:14;99640.39;;;10.51;48.96
47706;BME280;33471;52.104;1.318;2022-09-27T10:39:42;99638.93;;;10.66;49.82
47706;BME280;33471;52.104;1.318;2022-09-27T10:42:42;99631.76;;;11.29;47.32
47706;BME280;33471;52.104;1.318;2022-09-27T10:45:29;99623.15;;;11.19;46.33
47706;BME280;33471;52.104;1.318;2022-09-27T10:47:57;99624.32;;;10.90;46.49
47706;BME280;33471;52.104;1.318;2022-09-27T10:50:26;99618.82;;;10.54;46.41
47706;BME280;33471;52.104;1.318;2022-09-27T10:53:03;99617.43;;;11.25;45.22
47706;BME280;33471;52.104;1.318;2022-09-27T10:55:33;99618.70;;;10.71;46.69
47706;BME280;33471;52.104;1.318;2022-09-27T10:58:02;99619.01;;;10.41;46.80
47706;BME280;33471;52.104;1.318;2022-09-27T11:00:31;99615.64;;;11.02;46.10
47706;BME280;33471;52.104;1.318;2022-09-27T11:03:01;99613.28;;;11.00;45.90
47706;BME280;33471;52.104;1.318;2022-09-27T11:05:33;99608.00;;;10.91;46.07
47706;BME280;33471;52.104;1.318;2022-09-27T11:08:21;99603.11;;;11.21;45.13
47706;BME280;33471;52.104;1.318;2022-09-27T11:11:23;99591.34;;;11.49;45.22
47706;BME280;33471;52.104;1.318;2022-09-27T11:14:00;99584.60;;;11.39;44.64
47706;BME280;33471;52.104;1.318;2022-09-27T11:16:40;99606.92;;;11.23;43.71
47706;BME280;33471;52.104;1.318;2022-09-27T11:19:21;99592.05;;;11.45;43.71
47706;BME280;33471;52.104;1.318;2022-09-27T11:21:58;99595.68;;;11.55;44.68
47706;BME280;33471;52.104;1.318;2022-09-27T11:24:40;99590.29;;;12.27;44.15
47706;BME280;33471;52.104;1.318;2022-09-27T11:27:21;99598.17;;;11.80;43.89
47706;BME280;33471;52.104;1.318;2022-09-27T11:30:02;99593.64;;;11.75;44.77
47706;BME280;33471;52.104;1.318;2022-09-27T11:32:43;99598.30;;;11.98;43.72
47706;BME280;33471;52.104;1.318;2022-09-27T11:35:36;99594.01;;;11.67;42.25
47706;BME280;33471;52.104;1.318;2022-09-27T11:38:16;99586.46;;;11.81;42.03
47706;BME280;33471;52.104;1.318;2022-09-27T11:40:56;99584.07;;;12.26;41.69
47706;BME280;33471;52.104;1.318;2022-09-27T11:43:42;99582.55;;;12.91;41.58
47706;BME280;33471;52.104;1.318;2022-09-27T11:46:20;99582.87;;;12.69;39.91
47706;BME280;33471;52.104;1.318;2022-09-27T11:49:06;99582.75;;;12.01;41.98
47706;BME280;33471;52.104;1.318;2022-09-27T11:51:51;99574.57;;;12.85;40.96
47706;BME280;33471;52.104;1.318;2022-09-27T11:54:33;99584.17;;;12.66;39.59
47706;BME280;33471;52.104;1.318;2022-09-27T11:57:07;99590.44;;;11.86;40.09
47706;BME280;33471;52.104;1.318;2022-09-27T12:00:16;99591.36;;;11.47;40.68
47706;BME280;33471;52.104;1.318;2022-09-27T12:04:15;99586.32;;;12.47;41.32
47706;BME280;33471;52.104;1.318;2022-09-27T12:06:55;99588.81;;;11.94;40.95
47706;BME280;33471;52.104;1.318;2022-09-27T12:09:28;99589.12;;;11.89;40.61
47706;BME280;33471;52.104;1.318;2022-09-27T12:12:02;99587.36;;;12.04;41.20
47706;BME280;33471;52.104;1.318;2022-09-27T12:14:35;99584.18;;;11.04;42.64
47706;BME280;33471;52.104;1.318;2022-09-27T12:17:11;99586.06;;;11.67;41.98
47706;BME280;33471;52.104;1.318;2022-09-27T12:19:42;99576.47;;;11.21;43.41
47706;BME280;33471;52.104;1.318;2022-09-27T12:22:12;99575.46;;;10.64;44.43
47706;BME280;33471;52.104;1.318;2022-09-27T12:24:40;99569.39;;;11.27;44.34
47706;BME280;33471;52.104;1.318;2022-09-27T12:27:12;99566.72;;;11.72;43.73
47706;BME280;33471;52.104;1.318;2022-09-27T12:29:43;99563.80;;;12.65;41.95
47706;BME280;33471;52.104;1.318;2022-09-27T12:32:16;99557.27;;;12.28;42.32
47706;BME280;33471;52.104;1.318;2022-09-27T12:34:50;99555.46;;;13.12;42.01
47706;BME280;33471;52.104;1.318;2022-09-27T12:37:23;99551.09;;;12.46;42.88
47706;BME280;33471;52.104;1.318;2022-09-27T12:39:57;99544.06;;;12.74;43.36
47706;BME280;33471;52.104;1.318;2022-09-27T12:42:30;99539.87;;;12.08;44.40
47706;BME280;33471;52.104;1.318;2022-09-27T12:44:59;99541.45;;;11.90;44.13
47706;BME280;33471;52.104;1.318;2022-09-27T12:47:44;99536.45;;;11.98;44.22
47706;BME280;33471;52.104;1.318;2022-09-27T12:50:23;99533.28;;;11.91;43.60
47706;BME280;33471;52.104;1.318;2022-09-27T12:52:55;99530.64;;;12.46;43.67
47706;BME280;33471;52.104;1.318;2022-09-27T12:55:34;99530.81;;;12.01;43.44
47706;BME280;33471;52.104;1.318;2022-09-27T12:58:27;99532.51;;;11.19;46.04
47706;BME280;33471;52.104;1.318;2022-09-27T13:01:05;99518.64;;;11.09;46.02
47706;BME280;33471;52.104;1.318;2022-09-27T13:03:53;99512.69;;;11.01;44.96
47706;BME280;33471;52.104;1.318;2022-09-27T13:06:37;99504.60;;;12.20;42.47
47706;BME280;33471;52.104;1.318;2022-09-27T13:09:36;99501.07;;;13.18;40.79
47706;BME280;33471;52.104;1.318;2022-09-27T13:12:11;99503.13;;;13.88;38.76
47706;BME280;33471;52.104;1.318;2022-09-27T13:14:43;99503.64;;;13.30;40.50
47706;BME280;33471;52.104;1.318;2022-09-27T13:17:49;99501.77;;;13.24;42.09
47706;BME280;33471;52.104;1.318;2022-09-27T13:20:39;99517.08;;;10.99;44.57
47706;BME280;33471;52.104;1.318;2022-09-27T13:23:49;99501.93;;;11.94;44.37
47706;BME280;33471;52.104;1.318;2022-09-27T13:26:22;99499.52;;;11.60;44.02
47706;BME280;33471;52.104;1.318;2022-09-27T13:28:58;99497.16;;;11.57;44.19
47706;BME280;33471;52.104;1.318;2022-09-27T13:32:02;99493.72;;;12.42;42.99
47706;BME280;33471;52.104;1.318;2022-09-27T13:34:38;99492.47;;;12.35;43.08
47706;BME280;33471;52.104;1.318;2022-09-27T13:37:45;99504.18;;;12.96;43.16